sensor_id;sensor_type;location;lat;lon;timestamp;P1;durP1;ratioP1;P2;durP2;ratioP2
15915;SDS011;8057;47.830;-3.870;2023-02-15T00:00:47;18.77;;;16.87;;
15915;SDS011;8057;47.830;-3.870;2023-02-15T00:04:56;21.50;;;16.37;;
15915;SDS011;8057;47.830;-3.870;2023-02-15T00:09:07;24.30;;;17.77;;
15915;SDS011;8057;47.830;-3.870;2023-02-15T00:13:17;22.93;;;17.40;;
15915;SDS011;8057;47.830;-3.870;2023-02-15T00:17:27;23.90;;;18.23;;
15915;SDS011;8057;47.830;-3.870;2023-02-15T00:21:37;21.40;;;18.37;;
15915;SDS011;8057;47.830;-3.870;2023-02-15T00:25:48;22.77;;;18.57;;
15915;SDS011;8057;47.830;-3.870;2023-02-15T00:29:58;26.97;;;20.07;;
15915;SDS011;8057;47.830;-3.870;2023-02-15T00:34:09;21.17;;;18.40;;
15915;SDS011;8057;47.830;-3.870;2023-02-15T00:38:20;21.43;;;19.17;;
15915;SDS011;8057;47.830;-3.870;2023-02-15T00:42:30;19.10;;;17.10;;
15915;SDS011;8057;47.830;-3.870;2023-02-15T00:46:39;22.60;;;20.20;;
15915;SDS011;8057;47.830;-3.870;2023-02-15T00:50:49;21.27;;;18.63;;
15915;SDS011;8057;47.830;-3.870;2023-02-15T00:55:00;19.93;;;16.83;;
15915;SDS011;8057;47.830;-3.870;2023-02-15T00:59:10;21.70;;;18.57;;
15915;SDS011;8057;47.830;-3.870;2023-02-15T01:03:20;20.63;;;18.53;;
15915;SDS011;8057;47.830;-3.870;2023-02-15T01:07:29;19.80;;;17.80;;
15915;SDS011;8057;47.830;-3.870;2023-02-15T01:11:38;20.27;;;17.43;;
15915;SDS011;8057;47.830;-3.870;2023-02-15T01:15:53;21.13;;;18.97;;
15915;SDS011;8057;47.830;-3.870;2023-02-15T01:20:03;21.37;;;18.40;;
15915;SDS011;8057;47.830;-3.870;2023-02-15T01:24:13;22.30;;;18.80;;
15915;SDS011;8057;47.830;-3.870;2023-02-15T01:28:22;21.93;;;18.27;;
15915;SDS011;8057;47.830;-3.870;2023-02-15T01:32:33;19.43;;;17.43;;
15915;SDS011;8057;47.830;-3.870;2023-02-15T01:36:42;22.07;;;18.23;;
15915;SDS011;8057;47.830;-3.870;2023-02-15T01:40:51;20.10;;;17.97;;
15915;SDS011;8057;47.830;-3.870;2023-02-15T01:45:22;21.73;;;19.53;;
15915;SDS011;8057;47.830;-3.870;2023-02-15T01:49:34;19.70;;;17.57;;
15915;SDS011;8057;47.830;-3.870;2023-02-15T01:53:45;19.67;;;17.67;;
15915;SDS011;8057;47.830;-3.870;2023-02-15T01:58:00;21.73;;;18.00;;
15915;SDS011;8057;47.830;-3.870;2023-02-15T02:02:09;19.60;;;17.60;;
15915;SDS011;8057;47.830;-3.870;2023-02-15T02:06:23;19.43;;;17.37;;
15915;SDS011;8057;47.830;-3.870;2023-02-15T02:10:33;20.03;;;18.00;;
15915;SDS011;8057;47.830;-3.870;2023-02-15T02:14:43;18.97;;;17.23;;
15915;SDS011;8057;47.830;-3.870;2023-02-15T02:18:58;18.43;;;16.43;;
15915;SDS011;8057;47.830;-3.870;2023-02-15T02:23:23;20.63;;;18.37;;
15915;SDS011;8057;47.830;-3.870;2023-02-15T02:27:47;23.60;;;18.50;;
15915;SDS011;8057;47.830;-3.870;2023-02-15T02:36:49;21.40;;;19.13;;
15915;SDS011;8057;47.830;-3.870;2023-02-15T02:41:07;20.07;;;18.03;;
15915;SDS011;8057;47.830;-3.870;2023-02-15T02:45:23;23.30;;;20.83;;
15915;SDS011;8057;47.830;-3.870;2023-02-15T02:49:37;25.60;;;21.53;;
15915;SDS011;8057;47.830;-3.870;2023-02-15T02:53:51;22.23;;;20.13;;
15915;SDS011;8057;47.830;-3.870;2023-02-15T02:58:05;23.60;;;21.10;;
15915;SDS011;8057;47.830;-3.870;2023-02-15T03:02:19;22.23;;;20.03;;
15915;SDS011;8057;47.830;-3.870;2023-02-15T03:06:33;22.37;;;20.10;;
15915;SDS011;8057;47.830;-3.870;2023-02-15T03:10:49;21.20;;;19.17;;
15915;SDS011;8057;47.830;-3.870;2023-02-15T03:15:04;20.90;;;18.90;;
15915;SDS011;8057;47.830;-3.870;2023-02-15T03:19:19;20.83;;;18.73;;
15915;SDS011;8057;47.830;-3.870;2023-02-15T03:23:33;20.80;;;18.80;;
15915;SDS011;8057;47.830;-3.870;2023-02-15T03:27:46;20.23;;;18.20;;
15915;SDS011;8057;47.830;-3.870;2023-02-15T03:31:58;21.13;;;18.93;;
15915;SDS011;8057;47.830;-3.870;2023-02-15T03:36:11;23.80;;;21.30;;
15915;SDS011;8057;47.830;-3.870;2023-02-15T03:40:28;22.57;;;20.37;;
15915;SDS011;8057;47.830;-3.870;2023-02-15T03:45:08;25.30;;;22.53;;
15915;SDS011;8057;47.830;-3.870;2023-02-15T03:49:21;23.40;;;21.10;;
15915;SDS011;8057;47.830;-3.870;2023-02-15T03:53:33;23.07;;;20.77;;
15915;SDS011;8057;47.830;-3.870;2023-02-15T03:57:42;23.93;;;21.47;;
15915;SDS011;8057;47.830;-3.870;2023-02-15T04:02:13;23.70;;;21.20;;
15915;SDS011;8057;47.830;-3.870;2023-02-15T04:06:29;24.93;;;22.33;;
15915;SDS011;8057;47.830;-3.870;2023-02-15T04:10:38;22.93;;;20.63;;
15915;SDS011;8057;47.830;-3.870;2023-02-15T04:15:03;21.93;;;19.73;;
15915;SDS011;8057;47.830;-3.870;2023-02-15T04:19:43;23.33;;;21.10;;
15915;SDS011;8057;47.830;-3.870;2023-02-15T04:24:09;23.17;;;20.87;;
15915;SDS011;8057;47.830;-3.870;2023-02-15T04:28:36;23.50;;;21.00;;
15915;SDS011;8057;47.830;-3.870;2023-02-15T04:32:46;21.53;;;19.43;;
15915;SDS011;8057;47.830;-3.870;2023-02-15T04:36:57;22.70;;;20.37;;
15915;SDS011;8057;47.830;-3.870;2023-02-15T04:41:06;23.57;;;21.17;;
15915;SDS011;8057;47.830;-3.870;2023-02-15T04:45:17;22.57;;;20.37;;
15915;SDS011;8057;47.830;-3.870;2023-02-15T04:49:26;22.50;;;20.30;;
15915;SDS011;8057;47.830;-3.870;2023-02-15T04:53:37;24.70;;;21.13;;
15915;SDS011;8057;47.830;-3.870;2023-02-15T04:57:46;21.00;;;18.97;;
15915;SDS011;8057;47.830;-3.870;2023-02-15T05:01:55;23.23;;;20.87;;
15915;SDS011;8057;47.830;-3.870;2023-02-15T05:06:05;22.23;;;20.03;;
15915;SDS011;8057;47.830;-3.870;2023-02-15T05:10:15;22.10;;;19.80;;
15915;SDS011;8057;47.830;-3.870;2023-02-15T05:14:25;22.10;;;19.83;;
15915;SDS011;8057;47.830;-3.870;2023-02-15T05:18:34;21.57;;;19.37;;
15915;SDS011;8057;47.830;-3.870;2023-02-15T05:22:43;23.23;;;20.67;;
15915;SDS011;8057;47.830;-3.870;2023-02-15T05:26:54;22.07;;;19.73;;
15915;SDS011;8057;47.830;-3.870;2023-02-15T05:31:20;21.97;;;19.83;;
15915;SDS011;8057;47.830;-3.870;2023-02-15T05:35:30;23.57;;;20.53;;
15915;SDS011;8057;47.830;-3.870;2023-02-15T05:39:39;21.50;;;19.27;;
15915;SDS011;8057;47.830;-3.870;2023-02-15T05:43:50;21.53;;;19.33;;
15915;SDS011;8057;47.830;-3.870;2023-02-15T05:47:59;21.17;;;18.97;;
15915;SDS011;8057;47.830;-3.870;2023-02-15T05:52:09;22.43;;;20.10;;
15915;SDS011;8057;47.830;-3.870;2023-02-15T05:56:18;21.43;;;19.43;;
15915;SDS011;8057;47.830;-3.870;2023-02-15T06:00:29;21.60;;;19.43;;
15915;SDS011;8057;47.830;-3.870;2023-02-15T06:04:38;22.20;;;20.00;;
15915;SDS011;8057;47.830;-3.870;2023-02-15T06:08:49;20.70;;;18.70;;
15915;SDS011;8057;47.830;-3.870;2023-02-15T06:12:58;21.73;;;19.63;;
15915;SDS011;8057;47.830;-3.870;2023-02-15T06:17:09;23.40;;;20.50;;
15915;SDS011;8057;47.830;-3.870;2023-02-15T06:21:18;22.27;;;19.87;;
15915;SDS011;8057;47.830;-3.870;2023-02-15T06:25:27;21.97;;;19.57;;
15915;SDS011;8057;47.830;-3.870;2023-02-15T06:29:36;21.67;;;19.43;;
15915;SDS011;8057;47.830;-3.870;2023-02-15T06:33:47;22.40;;;20.00;;
15915;SDS011;8057;47.830;-3.870;2023-02-15T06:37:56;22.23;;;20.00;;
15915;SDS011;8057;47.830;-3.870;2023-02-15T06:42:05;24.57;;;21.40;;
15915;SDS011;8057;47.830;-3.870;2023-02-15T06:46:15;25.33;;;22.83;;
15915;SDS011;8057;47.830;-3.870;2023-02-15T06:50:26;22.37;;;20.07;;
15915;SDS011;8057;47.830;-3.870;2023-02-15T06:54:36;23.93;;;21.47;;
15915;SDS011;8057;47.830;-3.870;2023-02-15T06:58:45;23.87;;;21.27;;
15915;SDS011;8057;47.830;-3.870;2023-02-15T07:02:56;22.33;;;19.93;;
15915;SDS011;8057;47.830;-3.870;2023-02-15T07:07:09;21.27;;;19.13;;
15915;SDS011;8057;47.830;-3.870;2023-02-15T07:11:19;22.33;;;20.03;;
15915;SDS011;8057;47.830;-3.870;2023-02-15T07:15:46;24.10;;;21.43;;
15915;SDS011;8057;47.830;-3.870;2023-02-15T07:19:56;26.33;;;22.03;;
15915;SDS011;8057;47.830;-3.870;2023-02-15T07:24:06;21.23;;;18.97;;
15915;SDS011;8057;47.830;-3.870;2023-02-15T07:28:16;22.47;;;20.17;;
15915;SDS011;8057;47.830;-3.870;2023-02-15T07:32:27;22.63;;;20.33;;
15915;SDS011;8057;47.830;-3.870;2023-02-15T07:36:37;24.90;;;21.90;;
15915;SDS011;8057;47.830;-3.870;2023-02-15T07:40:48;23.53;;;21.13;;
15915;SDS011;8057;47.830;-3.870;2023-02-15T07:44:57;25.30;;;21.97;;
15915;SDS011;8057;47.830;-3.870;2023-02-15T07:49:06;25.40;;;22.80;;
15915;SDS011;8057;47.830;-3.870;2023-02-15T07:53:16;23.90;;;21.40;;
15915;SDS011;8057;47.830;-3.870;2023-02-15T07:57:26;25.40;;;22.77;;
15915;SDS011;8057;47.830;-3.870;2023-02-15T08:01:37;24.47;;;21.87;;
15915;SDS011;8057;47.830;-3.870;2023-02-15T08:05:47;25.67;;;22.90;;
15915;SDS011;8057;47.830;-3.870;2023-02-15T08:09:56;25.87;;;23.17;;
15915;SDS011;8057;47.830;-3.870;2023-02-15T08:14:08;26.20;;;23.50;;
15915;SDS011;8057;47.830;-3.870;2023-02-15T08:18:18;27.53;;;24.53;;
15915;SDS011;8057;47.830;-3.870;2023-02-15T08:22:28;25.73;;;23.13;;
15915;SDS011;8057;47.830;-3.870;2023-02-15T08:26:38;23.73;;;21.23;;
15915;SDS011;8057;47.830;-3.870;2023-02-15T08:30:49;24.63;;;21.90;;
15915;SDS011;8057;47.830;-3.870;2023-02-15T08:34:59;24.23;;;21.90;;
15915;SDS011;8057;47.830;-3.870;2023-02-15T08:39:08;24.83;;;22.20;;
15915;SDS011;8057;47.830;-3.870;2023-02-15T08:43:17;24.17;;;21.70;;
15915;SDS011;8057;47.830;-3.870;2023-02-15T08:47:28;25.13;;;22.57;;
15915;SDS011;8057;47.830;-3.870;2023-02-15T08:51:37;24.43;;;21.87;;
15915;SDS011;8057;47.830;-3.870;2023-02-15T08:55:47;24.37;;;21.90;;
15915;SDS011;8057;47.830;-3.870;2023-02-15T09:00:03;25.33;;;22.90;;
15915;SDS011;8057;47.830;-3.870;2023-02-15T09:04:14;23.43;;;21.13;;
15915;SDS011;8057;47.830;-3.870;2023-02-15T09:08:24;25.10;;;22.50;;
15915;SDS011;8057;47.830;-3.870;2023-02-15T09:12:33;23.90;;;21.47;;
15915;SDS011;8057;47.830;-3.870;2023-02-15T09:16:43;22.63;;;20.30;;
15915;SDS011;8057;47.830;-3.870;2023-02-15T09:20:57;23.67;;;21.33;;
15915;SDS011;8057;47.830;-3.870;2023-02-15T09:25:12;23.00;;;20.80;;
15915;SDS011;8057;47.830;-3.870;2023-02-15T09:29:21;23.40;;;21.10;;
15915;SDS011;8057;47.830;-3.870;2023-02-15T09:33:31;22.03;;;20.00;;
15915;SDS011;8057;47.830;-3.870;2023-02-15T09:37:44;23.03;;;20.70;;
15915;SDS011;8057;47.830;-3.870;2023-02-15T09:42:05;22.10;;;19.90;;
15915;SDS011;8057;47.830;-3.870;2023-02-15T09:46:44;23.17;;;20.87;;
15915;SDS011;8057;47.830;-3.870;2023-02-15T09:55:51;21.57;;;19.30;;
15915;SDS011;8057;47.830;-3.870;2023-02-15T10:00:07;21.37;;;19.27;;
15915;SDS011;8057;47.830;-3.870;2023-02-15T10:04:29;21.60;;;19.33;;
15915;SDS011;8057;47.830;-3.870;2023-02-15T10:08:52;22.17;;;19.87;;
15915;SDS011;8057;47.830;-3.870;2023-02-15T10:13:17;20.83;;;18.70;;
15915;SDS011;8057;47.830;-3.870;2023-02-15T10:17:44;20.20;;;18.20;;
15915;SDS011;8057;47.830;-3.870;2023-02-15T10:22:17;20.03;;;17.93;;
15915;SDS011;8057;47.830;-3.870;2023-02-15T10:26:36;18.23;;;16.23;;
15915;SDS011;8057;47.830;-3.870;2023-02-15T10:30:54;19.20;;;17.20;;
15915;SDS011;8057;47.830;-3.870;2023-02-15T10:35:14;22.40;;;16.90;;
15915;SDS011;8057;47.830;-3.870;2023-02-15T10:39:29;19.43;;;16.30;;
15915;SDS011;8057;47.830;-3.870;2023-02-15T10:43:54;17.83;;;16.03;;
15915;SDS011;8057;47.830;-3.870;2023-02-15T10:48:20;17.80;;;15.97;;
15915;SDS011;8057;47.830;-3.870;2023-02-15T10:52:42;19.40;;;17.30;;
15915;SDS011;8057;47.830;-3.870;2023-02-15T10:57:03;20.37;;;16.70;;
15915;SDS011;8057;47.830;-3.870;2023-02-15T11:01:22;18.50;;;15.87;;
15915;SDS011;8057;47.830;-3.870;2023-02-15T11:05:38;19.07;;;16.67;;
15915;SDS011;8057;47.830;-3.870;2023-02-15T11:09:51;22.10;;;16.83;;
15915;SDS011;8057;47.830;-3.870;2023-02-15T11:14:09;19.03;;;17.03;;
15915;SDS011;8057;47.830;-3.870;2023-02-15T11:18:25;18.43;;;16.50;;
15915;SDS011;8057;47.830;-3.870;2023-02-15T11:22:44;20.37;;;17.67;;
15915;SDS011;8057;47.830;-3.870;2023-02-15T11:27:00;22.30;;;19.03;;
15915;SDS011;8057;47.830;-3.870;2023-02-15T11:31:13;19.77;;;17.23;;
15915;SDS011;8057;47.830;-3.870;2023-02-15T11:35:26;21.40;;;19.13;;
15915;SDS011;8057;47.830;-3.870;2023-02-15T11:39:42;22.63;;;18.30;;
15915;SDS011;8057;47.830;-3.870;2023-02-15T11:43:59;20.83;;;18.60;;
15915;SDS011;8057;47.830;-3.870;2023-02-15T11:48:14;27.07;;;18.07;;
15915;SDS011;8057;47.830;-3.870;2023-02-15T11:52:31;19.23;;;17.20;;
15915;SDS011;8057;47.830;-3.870;2023-02-15T11:56:42;22.13;;;17.23;;
15915;SDS011;8057;47.830;-3.870;2023-02-15T12:00:52;24.93;;;18.87;;
15915;SDS011;8057;47.830;-3.870;2023-02-15T12:05:09;21.53;;;18.80;;
15915;SDS011;8057;47.830;-3.870;2023-02-15T12:09:29;20.20;;;17.60;;
15915;SDS011;8057;47.830;-3.870;2023-02-15T12:18:24;22.43;;;18.00;;
15915;SDS011;8057;47.830;-3.870;2023-02-15T12:22:45;19.80;;;17.43;;
15915;SDS011;8057;47.830;-3.870;2023-02-15T12:27:00;19.27;;;17.30;;
15915;SDS011;8057;47.830;-3.870;2023-02-15T12:31:20;20.63;;;18.13;;
15915;SDS011;8057;47.830;-3.870;2023-02-15T12:35:32;20.30;;;17.73;;
15915;SDS011;8057;47.830;-3.870;2023-02-15T12:39:50;18.47;;;16.33;;
15915;SDS011;8057;47.830;-3.870;2023-02-15T12:44:06;19.63;;;15.90;;
15915;SDS011;8057;47.830;-3.870;2023-02-15T12:48:25;20.03;;;16.67;;
15915;SDS011;8057;47.830;-3.870;2023-02-15T12:52:34;18.97;;;16.43;;
15915;SDS011;8057;47.830;-3.870;2023-02-15T12:56:43;17.60;;;14.70;;
15915;SDS011;8057;47.830;-3.870;2023-02-15T13:01:03;17.20;;;15.47;;
15915;SDS011;8057;47.830;-3.870;2023-02-15T13:05:22;17.80;;;14.00;;
15915;SDS011;8057;47.830;-3.870;2023-02-15T13:09:36;17.07;;;14.53;;
15915;SDS011;8057;47.830;-3.870;2023-02-15T13:13:50;16.13;;;14.40;;
15915;SDS011;8057;47.830;-3.870;2023-02-15T13:18:02;18.47;;;15.83;;
15915;SDS011;8057;47.830;-3.870;2023-02-15T13:22:16;16.23;;;14.57;;
15915;SDS011;8057;47.830;-3.870;2023-02-15T13:26:32;22.60;;;15.23;;
15915;SDS011;8057;47.830;-3.870;2023-02-15T13:30:45;16.90;;;14.53;;
15915;SDS011;8057;47.830;-3.870;2023-02-15T13:34:59;18.90;;;15.67;;
15915;SDS011;8057;47.830;-3.870;2023-02-15T13:39:17;19.50;;;15.47;;
15915;SDS011;8057;47.830;-3.870;2023-02-15T13:43:35;19.80;;;15.40;;
15915;SDS011;8057;47.830;-3.870;2023-02-15T13:47:54;16.27;;;14.63;;
15915;SDS011;8057;47.830;-3.870;2023-02-15T13:52:11;16.70;;;15.10;;
15915;SDS011;8057;47.830;-3.870;2023-02-15T13:56:32;19.07;;;14.33;;
15915;SDS011;8057;47.830;-3.870;2023-02-15T14:00:48;17.87;;;15.20;;
15915;SDS011;8057;47.830;-3.870;2023-02-15T14:09:59;17.53;;;15.33;;
15915;SDS011;8057;47.830;-3.870;2023-02-15T14:14:35;18.23;;;16.00;;
15915;SDS011;8057;47.830;-3.870;2023-02-15T14:19:10;17.53;;;14.10;;
15915;SDS011;8057;47.830;-3.870;2023-02-15T14:23:43;18.97;;;15.07;;
15915;SDS011;8057;47.830;-3.870;2023-02-15T14:28:08;21.33;;;15.10;;
15915;SDS011;8057;47.830;-3.870;2023-02-15T14:32:32;20.47;;;15.80;;
15915;SDS011;8057;47.830;-3.870;2023-02-15T14:36:46;22.70;;;16.80;;
15915;SDS011;8057;47.830;-3.870;2023-02-15T14:40:57;26.83;;;22.87;;
15915;SDS011;8057;47.830;-3.870;2023-02-15T14:45:17;21.23;;;18.10;;
15915;SDS011;8057;47.830;-3.870;2023-02-15T14:49:35;21.57;;;18.83;;
15915;SDS011;8057;47.830;-3.870;2023-02-15T14:53:46;22.43;;;18.37;;
15915;SDS011;8057;47.830;-3.870;2023-02-15T14:57:56;37.90;;;31.67;;
15915;SDS011;8057;47.830;-3.870;2023-02-15T15:02:10;21.40;;;17.43;;
15915;SDS011;8057;47.830;-3.870;2023-02-15T15:06:31;22.93;;;18.53;;
15915;SDS011;8057;47.830;-3.870;2023-02-15T15:21:10;21.10;;;17.87;;
15915;SDS011;8057;47.830;-3.870;2023-02-15T18:58:08;24.17;;;21.07;;
15915;SDS011;8057;47.830;-3.870;2023-02-15T20:04:26;18.20;;;16.20;;
15915;SDS011;8057;47.830;-3.870;2023-02-15T20:14:08;20.03;;;16.13;;
15915;SDS011;8057;47.830;-3.870;2023-02-15T20:28:57;19.83;;;13.57;;
15915;SDS011;8057;47.830;-3.870;2023-02-15T20:52:55;15.53;;;10.13;;
15915;SDS011;8057;47.830;-3.870;2023-02-15T20:57:28;14.87;;;8.90;;
15915;SDS011;8057;47.830;-3.870;2023-02-15T21:16:16;12.47;;;7.20;;
15915;SDS011;8057;47.830;-3.870;2023-02-15T21:20:45;15.67;;;7.93;;
15915;SDS011;8057;47.830;-3.870;2023-02-15T21:25:38;12.20;;;7.10;;
15915;SDS011;8057;47.830;-3.870;2023-02-15T21:35:49;21.73;;;8.67;;
15915;SDS011;8057;47.830;-3.870;2023-02-15T21:45:56;21.17;;;8.33;;
15915;SDS011;8057;47.830;-3.870;2023-02-15T21:56:29;17.67;;;8.57;;
15915;SDS011;8057;47.830;-3.870;2023-02-15T22:01:20;21.13;;;9.37;;
15915;SDS011;8057;47.830;-3.870;2023-02-15T22:05:54;16.07;;;10.23;;
15915;SDS011;8057;47.830;-3.870;2023-02-15T22:10:42;21.60;;;10.20;;
15915;SDS011;8057;47.830;-3.870;2023-02-15T22:14:55;20.47;;;12.07;;
15915;SDS011;8057;47.830;-3.870;2023-02-15T22:20:00;21.43;;;10.90;;
15915;SDS011;8057;47.830;-3.870;2023-02-15T22:25:51;17.87;;;10.70;;
15915;SDS011;8057;47.830;-3.870;2023-02-15T22:31:09;19.27;;;10.73;;
15915;SDS011;8057;47.830;-3.870;2023-02-15T22:56:43;17.10;;;8.93;;
15915;SDS011;8057;47.830;-3.870;2023-02-15T23:13:36;19.17;;;9.13;;
15915;SDS011;8057;47.830;-3.870;2023-02-15T23:19:09;19.83;;;9.53;;
15915;SDS011;8057;47.830;-3.870;2023-02-15T23:24:09;14.40;;;9.47;;
15915;SDS011;8057;47.830;-3.870;2023-02-15T23:33:39;17.03;;;7.57;;
15915;SDS011;8057;47.830;-3.870;2023-02-15T23:37:50;17.17;;;6.73;;
15915;SDS011;8057;47.830;-3.870;2023-02-15T23:42:13;14.70;;;7.03;;
15915;SDS011;8057;47.830;-3.870;2023-02-15T23:46:28;14.50;;;7.13;;
15915;SDS011;8057;47.830;-3.870;2023-02-15T23:51:05;12.90;;;6.17;;
15915;SDS011;8057;47.830;-3.870;2023-02-15T23:55:22;15.73;;;5.90;;
15915;SDS011;8057;47.830;-3.870;2023-02-15T23:59:43;16.30;;;5.70;;
